Time;durP1;ratioP1;P1;durP2;ratioP2;P2;SDS_P1;SDS_P2;PMS_P1;PMS_P2;Temp;Humidity;BMP_temperature;BMP_pressure;BME280_temperature;BME280_humidity;BME280_pressure;Samples;Min_cycle;Max_cycle;Signal;HPM_P1;HPM_P2
2023/12/09 00:02:11;;;;;;;5.30;3.92;;;;;;;19.48;42.50;101253.78;4622491;31;20059;-56
2023/12/09 00:04:38;;;;;;;5.03;4.47;;;;;;;19.48;42.43;101258.31;4619794;31;20052;-55
2023/12/09 00:07:05;;;;;;;4.90;4.20;;;;;;;19.45;42.46;101251.38;4619658;31;20531;-55
2023/12/09 00:09:33;;;;;;;5.30;4.22;;;;;;;19.45;42.55;101253.19;4619723;31;20063;-55
2023/12/09 00:12:00;;;;;;;4.85;3.90;;;;;;;19.43;42.47;101258.66;4622799;31;20054;-56
2023/12/09 00:14:28;;;;;;;5.45;4.30;;;;;;;19.43;42.48;101261.34;4613677;31;20060;-56
2023/12/09 00:16:55;;;;;;;4.70;3.92;;;;;;;19.42;42.77;101256.97;4619774;31;20504;-59
2023/12/09 00:19:22;;;;;;;4.50;3.70;;;;;;;19.43;42.73;101263.19;4619881;31;20067;-59
2023/12/09 00:21:50;;;;;;;5.03;4.50;;;;;;;19.41;42.62;101260.66;4622730;31;20063;-58
2023/12/09 00:24:17;;;;;;;5.53;4.32;;;;;;;19.40;42.57;101260.75;4613414;31;20058;-58
2023/12/09 00:26:45;;;;;;;7.40;4.68;;;;;;;19.40;42.59;101266.13;4619885;31;20056;-59
2023/12/09 00:29:12;;;;;;;4.88;4.38;;;;;;;19.38;42.50;101258.19;4620070;31;20060;-58
2023/12/09 00:31:39;;;;;;;6.35;4.80;;;;;;;19.37;42.53;101251.13;4635166;30;20055;-58
2023/12/09 00:34:07;;;;;;;6.97;4.90;;;;;;;19.36;42.45;101254.75;4625785;31;20078;-58
2023/12/09 00:36:35;;;;;;;4.85;4.18;;;;;;;19.34;42.66;101251.34;4619507;31;20519;-58
2023/12/09 00:39:02;;;;;;;5.65;4.72;;;;;;;19.35;42.40;101257.56;4619303;31;20067;-58
2023/12/09 00:41:29;;;;;;;5.25;4.53;;;;;;;19.34;42.64;101254.03;4622027;31;20047;-58
2023/12/09 00:43:57;;;;;;;6.00;4.47;;;;;;;19.34;42.56;101255.88;4625526;31;20066;-59
2023/12/09 00:46:24;;;;;;;6.93;4.82;;;;;;;19.34;42.41;101253.19;4619531;31;20416;-58
2023/12/09 00:48:51;;;;;;;4.70;3.75;;;;;;;19.33;42.33;101259.53;4619365;31;20508;-59
2023/12/09 00:51:19;;;;;;;6.10;4.30;;;;;;;19.32;42.49;101268.56;4621855;31;20075;-58
2023/12/09 00:53:46;;;;;;;4.95;4.45;;;;;;;19.31;42.38;101267.69;4619245;31;20063;-58
2023/12/09 00:56:14;;;;;;;6.32;4.68;;;;;;;19.31;42.74;101264.16;4619120;31;20060;-58
2023/12/09 00:58:59;;;;;;;5.57;4.03;;;;;;;19.31;42.45;101261.47;4618693;31;20060;-58
2023/12/09 01:01:26;;;;;;;6.32;4.65;;;;;;;19.30;42.41;101271.38;4620801;31;20066;-58
2023/12/09 01:03:53;;;;;;;5.93;4.40;;;;;;;19.29;42.42;101263.44;4619037;31;20063;-58
2023/12/09 01:06:21;;;;;;;4.95;4.40;;;;;;;19.27;42.41;101259.03;4618986;31;20428;-55
2023/12/09 01:08:49;;;;;;;4.85;4.10;;;;;;;19.29;42.42;101268.81;4620232;31;20063;-56
2023/12/09 01:11:16;;;;;;;5.32;4.18;;;;;;;19.28;42.31;101262.56;4632113;30;20059;-56
2023/12/09 01:13:43;;;;;;;5.10;4.47;;;;;;;19.29;42.32;101266.13;4618655;31;20059;-56
2023/12/09 01:16:11;;;;;;;5.85;4.15;;;;;;;19.27;42.39;101267.09;4618983;31;20055;-58
2023/12/09 01:18:38;;;;;;;4.95;4.45;;;;;;;19.29;42.45;101284.94;4619993;31;20067;-59
2023/12/09 01:21:06;;;;;;;6.20;5.00;;;;;;;19.29;42.56;101285.78;4620171;31;20512;-59
2023/12/09 01:23:33;;;;;;;5.07;4.57;;;;;;;19.28;42.59;101284.03;4618511;31;20420;-58
2023/12/09 01:26:00;;;;;;;5.07;4.57;;;;;;;19.27;42.42;101274.28;4618684;31;20115;-55
2023/12/09 01:28:28;;;;;;;5.55;5.05;;;;;;;19.27;42.54;101277.81;4620020;31;20113;-54
2023/12/09 01:30:55;;;;;;;5.00;4.43;;;;;;;19.27;42.38;101285.03;4620402;31;20525;-56
2023/12/09 01:33:22;;;;;;;6.20;4.65;;;;;;;19.26;42.55;101278.81;4618985;31;20060;-55
2023/12/09 01:35:50;;;;;;;4.93;4.28;;;;;;;19.26;42.42;101276.13;4618654;31;20056;-58
2023/12/09 01:38:17;;;;;;;4.10;3.63;;;;;;;19.26;42.62;101291.38;4619450;31;20079;-58
2023/12/09 01:40:52;;;;;;;4.80;4.20;;;;;;;19.25;42.29;101295.91;4620113;31;20055;-59
2023/12/09 01:43:19;;;;;;;4.68;4.25;;;;;;;19.25;42.59;101298.56;4618509;31;20508;-59
2023/12/09 01:45:50;;;;;;;4.65;3.97;;;;;;;19.25;42.66;101298.56;4618531;31;20060;-56
2023/12/09 01:48:17;;;;;;;4.50;4.00;;;;;;;19.24;42.57;101279.88;4614919;31;20064;-55
2023/12/09 01:50:45;;;;;;;4.28;3.85;;;;;;;19.25;42.50;101279.78;4617280;31;20055;-55
2023/12/09 01:53:13;;;;;;;5.53;4.47;;;;;;;19.24;42.65;101286.13;4621822;31;20055;-54
2023/12/09 01:55:41;;;;;;;4.55;3.70;;;;;;;19.24;42.75;101298.69;4618419;31;20044;-58
2023/12/09 01:58:10;;;;;;;4.57;3.92;;;;;;;19.24;42.78;101293.31;4620851;31;20074;-58
2023/12/09 02:00:39;;;;;;;4.95;4.28;;;;;;;19.23;42.74;101289.78;4618805;31;20104;-58
2023/12/09 02:03:06;;;;;;;5.00;4.28;;;;;;;19.23;42.75;101292.47;4618339;31;20064;-59
2023/12/09 02:05:34;;;;;;;4.78;4.22;;;;;;;19.23;42.85;101292.47;4618215;31;20055;-54
2023/12/09 02:08:02;;;;;;;5.45;4.15;;;;;;;19.23;42.83;101294.28;4620533;31;20062;-58
2023/12/09 02:10:29;;;;;;;5.28;4.07;;;;;;;19.22;42.44;101298.81;4611659;31;20419;-58
2023/12/09 02:13:20;;;;;;;5.20;4.47;;;;;;;19.22;42.82;101300.66;4617729;31;20059;-58
2023/12/09 02:15:56;;;;;;;5.45;4.47;;;;;;;19.21;42.95;101299.78;4620068;31;20059;-55
2023/12/09 02:18:25;;;;;;;5.03;3.95;;;;;;;19.20;42.95;101303.47;4612426;31;20063;-55
2023/12/09 02:20:52;;;;;;;7.63;4.45;;;;;;;19.21;42.91;101304.31;4617850;31;20055;-55
2023/12/09 02:23:19;;;;;;;4.85;4.28;;;;;;;19.21;42.94;101305.16;4617965;31;20058;-55
2023/12/09 02:25:52;;;;;;;5.75;4.68;;;;;;;19.20;42.76;101298.09;4620984;31;20531;-59
2023/12/09 02:28:29;;;;;;;5.03;4.50;;;;;;;19.19;43.01;101291.00;4618403;30;20064;-58
2023/12/09 02:31:11;;;;;;;6.63;4.25;;;;;;;19.19;42.80;101288.31;4618065;31;20082;-58
2023/12/09 02:33:40;;;;;;;4.75;4.25;;;;;;;19.19;42.95;101291.00;4624800;31;20067;-58
2023/12/09 02:36:10;;;;;;;5.45;4.45;;;;;;;19.19;43.10;101290.13;4617373;31;20538;-58
2023/12/09 02:38:39;;;;;;;6.63;4.43;;;;;;;19.17;42.99;101290.28;4617332;31;20501;-58
2023/12/09 02:41:06;;;;;;;5.00;4.25;;;;;;;19.16;42.89;101296.63;4617844;31;20058;-58
2023/12/09 02:43:34;;;;;;;4.60;4.10;;;;;;;19.16;42.89;101302.00;4619871;31;20059;-58
2023/12/09 02:46:02;;;;;;;5.28;4.32;;;;;;;19.17;43.04;101311.75;4617936;31;20056;-58
2023/12/09 02:48:29;;;;;;;4.45;3.92;;;;;;;19.17;42.91;101321.63;4630440;30;20059;-58
2023/12/09 02:50:56;;;;;;;5.03;4.35;;;;;;;19.18;43.05;101326.00;4618530;31;20420;-58
2023/12/09 02:53:24;;;;;;;5.03;4.53;;;;;;;19.17;42.91;101325.16;4620534;31;20416;-58
2023/12/09 02:55:51;;;;;;;4.45;4.03;;;;;;;19.17;42.89;101327.00;4617780;31;20067;-58
2023/12/09 02:58:18;;;;;;;5.38;3.70;;;;;;;19.17;42.56;101330.53;4618329;31;20062;-58
2023/12/09 03:00:46;;;;;;;4.57;3.88;;;;;;;19.17;43.00;101327.00;4617962;31;20051;-58
2023/12/09 03:03:13;;;;;;;5.07;3.88;;;;;;;19.17;42.92;101327.00;4620105;31;20051;-58
2023/12/09 03:05:41;;;;;;;4.25;3.78;;;;;;;19.18;42.99;101336.75;4617861;31;20047;-57
2023/12/09 03:08:08;;;;;;;3.95;3.28;;;;;;;19.18;42.83;101337.59;4629718;30;20147;-55
2023/12/09 03:10:35;;;;;;;4.97;4.03;;;;;;;19.16;42.81;101328.81;4617933;31;20052;-54
2023/12/09 03:13:03;;;;;;;4.72;3.72;;;;;;;19.17;43.06;101335.03;4620436;31;20389;-55
2023/12/09 03:15:30;;;;;;;4.40;3.58;;;;;;;19.17;43.03;101341.25;4617756;31;20048;-54
2023/12/09 03:17:57;;;;;;;4.88;3.80;;;;;;;19.16;43.02;101339.56;4617625;31;20067;-53
2023/12/09 03:20:25;;;;;;;5.22;4.25;;;;;;;19.16;43.17;101336.00;4617726;31;20063;-55
2023/12/09 03:22:52;;;;;;;4.65;3.42;;;;;;;19.17;43.16;101335.03;4620176;31;20060;-55
2023/12/09 03:25:20;;;;;;;4.57;3.85;;;;;;;19.16;43.38;101320.78;4617337;31;20416;-55
2023/12/09 03:27:47;;;;;;;4.97;4.00;;;;;;;19.15;43.22;101305.63;4617693;31;20064;-53
2023/12/09 03:30:14;;;;;;;4.35;3.58;;;;;;;19.16;43.09;101315.41;4617517;31;20063;-55
2023/12/09 03:32:42;;;;;;;5.18;3.80;;;;;;;19.16;43.11;101306.47;4620070;31;20071;-55
2023/12/09 03:35:12;;;;;;;5.22;4.13;;;;;;;19.15;43.33;101302.94;4618266;31;20056;-54
2023/12/09 03:37:39;;;;;;;4.30;3.75;;;;;;;19.16;43.25;101290.38;4620276;31;20071;-58
2023/12/09 03:40:10;;;;;;;4.63;3.65;;;;;;;19.15;43.10;101297.56;4620962;31;20067;-58
2023/12/09 03:42:37;;;;;;;3.92;3.40;;;;;;;19.15;43.26;101300.25;4621995;31;20534;-58
2023/12/09 03:45:05;;;;;;;6.35;4.38;;;;;;;19.16;43.18;101301.09;4632985;30;20052;-58
2023/12/09 03:47:33;;;;;;;9.07;4.47;;;;;;;19.16;43.22;101298.41;4626358;31;20062;-58
2023/12/09 03:50:00;;;;;;;5.05;3.70;;;;;;;19.14;43.36;101314.66;4621008;31;20055;-58
2023/12/09 03:52:28;;;;;;;3.85;3.45;;;;;;;19.14;43.24;101320.03;4622271;31;20465;-58
2023/12/09 03:54:56;;;;;;;5.47;4.13;;;;;;;19.14;43.11;101322.72;4620360;31;20542;-58
2023/12/09 03:57:23;;;;;;;4.97;4.00;;;;;;;19.14;43.29;101317.34;4620677;31;20060;-55
2023/12/09 03:59:50;;;;;;;4.88;3.53;;;;;;;19.14;43.33;101314.66;4620916;31;20073;-55
2023/12/09 04:02:18;;;;;;;3.92;3.13;;;;;;;19.15;43.17;101324.41;4621777;31;20067;-53
2023/12/09 04:04:46;;;;;;;5.57;4.05;;;;;;;19.13;43.16;101321.00;4619993;31;20127;-55
2023/12/09 04:07:13;;;;;;;4.63;3.75;;;;;;;19.12;43.17;101330.03;4619792;31;20055;-54
2023/12/09 04:09:41;;;;;;;5.10;3.60;;;;;;;19.13;43.27;101322.84;4620461;31;20063;-54
2023/12/09 04:12:09;;;;;;;4.15;3.47;;;;;;;19.11;43.33;101322.94;4621680;31;20079;-55
2023/12/09 04:14:36;;;;;;;4.53;3.88;;;;;;;19.12;43.22;101316.63;4619928;31;20056;-55
2023/12/09 04:17:03;;;;;;;4.00;3.33;;;;;;;19.12;43.54;101315.72;4619497;31;20055;-58
2023/12/09 04:19:31;;;;;;;4.40;3.38;;;;;;;19.11;43.42;101320.25;4620344;31;20067;-58
2023/12/09 04:21:58;;;;;;;4.72;3.33;;;;;;;19.11;43.25;101324.78;4621568;31;20063;-58
2023/12/09 04:24:26;;;;;;;4.25;3.83;;;;;;;19.11;43.13;101322.09;4619790;31;20135;-58
2023/12/09 04:26:53;;;;;;;4.78;3.60;;;;;;;19.09;43.20;101314.16;4619538;31;20079;-58
2023/12/09 04:29:20;;;;;;;3.80;3.28;;;;;;;19.11;43.26;101324.78;4620237;31;20067;-58
2023/12/09 04:31:48;;;;;;;4.68;4.05;;;;;;;19.09;43.15;101327.59;4621687;31;20067;-58
2023/12/09 04:34:15;;;;;;;4.57;3.60;;;;;;;19.10;43.07;101323.91;4619515;31;20051;-59
2023/12/09 04:36:43;;;;;;;4.43;3.50;;;;;;;19.10;43.21;101315.88;4619650;31;20059;-54
2023/12/09 04:39:10;;;;;;;4.25;3.60;;;;;;;19.09;43.21;101303.44;4619995;31;20071;-55
2023/12/09 04:41:38;;;;;;;4.55;3.97;;;;;;;19.11;43.10;101308.66;4621527;31;20500;-55
2023/12/09 04:44:05;;;;;;;3.88;3.33;;;;;;;19.11;43.14;101309.53;4619414;31;20063;-54
2023/12/09 04:46:35;;;;;;;4.28;3.40;;;;;;;19.11;43.29;101309.53;4619296;31;20416;-54
2023/12/09 04:49:02;;;;;;;4.63;3.70;;;;;;;19.10;43.35;101309.66;4632818;30;20060;-54
2023/12/09 04:51:30;;;;;;;4.22;3.50;;;;;;;19.10;43.34;101312.34;4620854;31;20500;-56
2023/12/09 04:53:57;;;;;;;5.13;3.10;;;;;;;19.11;43.19;101322.09;4619189;31;20438;-55
2023/12/09 04:56:25;;;;;;;4.45;3.50;;;;;;;19.09;43.20;101311.47;4618918;31;20055;-58
2023/12/09 04:58:52;;;;;;;3.75;3.03;;;;;;;19.09;43.34;101316.84;4620241;31;20508;-58
2023/12/09 05:01:20;;;;;;;4.53;3.78;;;;;;;19.11;43.35;101311.34;4620470;31;20078;-59
2023/12/09 05:03:47;;;;;;;3.85;3.30;;;;;;;19.10;43.34;101307.81;4617912;31;20056;-58
2023/12/09 05:06:15;;;;;;;4.20;3.45;;;;;;;19.11;43.26;101314.03;4618882;31;20074;-54
2023/12/09 05:08:42;;;;;;;3.78;3.10;;;;;;;19.09;43.39;101316.84;4619837;31;20071;-56
2023/12/09 05:11:10;;;;;;;4.07;3.47;;;;;;;19.09;43.45;101311.47;4620891;31;20055;-56
2023/12/09 05:13:37;;;;;;;3.95;3.10;;;;;;;19.09;43.39;101311.47;4619546;31;20074;-55
2023/12/09 05:16:05;;;;;;;4.50;3.75;;;;;;;19.09;43.49;101327.59;4618892;31;20056;-58
2023/12/09 05:18:34;;;;;;;4.20;3.40;;;;;;;19.10;43.58;101328.44;4619754;31;20056;-58
2023/12/09 05:21:04;;;;;;;4.03;3.08;;;;;;;19.09;43.35;101316.84;4620080;31;20381;-59
2023/12/09 05:23:33;;;;;;;4.15;3.53;;;;;;;19.09;43.50;101306.13;4618961;31;20491;-58
2023/12/09 05:26:00;;;;;;;4.10;3.30;;;;;;;19.10;43.40;101294.41;4618624;31;20064;-58
2023/12/09 05:28:28;;;;;;;4.60;3.35;;;;;;;19.10;43.42;101278.28;4620125;31;20078;-58
2023/12/09 05:30:57;;;;;;;3.75;3.17;;;;;;;19.09;43.36;101279.28;4619589;31;20086;-58
2023/12/09 05:33:24;;;;;;;4.00;3.10;;;;;;;19.11;43.49;101276.47;4618487;31;20059;-58
2023/12/09 05:35:52;;;;;;;3.58;3.22;;;;;;;19.10;43.42;101269.41;4618732;31;20059;-55
2023/12/09 05:38:19;;;;;;;3.80;3.17;;;;;;;19.08;43.45;101258.78;4620773;31;20056;-55
2023/12/09 05:40:47;;;;;;;3.65;3.33;;;;;;;19.09;43.58;101260.50;4619998;31;20054;-56
2023/12/09 05:43:14;;;;;;;4.03;3.10;;;;;;;19.09;43.43;101262.31;4618907;31;20086;-56
2023/12/09 05:45:41;;;;;;;3.50;3.08;;;;;;;19.07;43.56;101267.78;4618717;31;20052;-58
2023/12/09 05:48:09;;;;;;;3.67;3.08;;;;;;;19.08;43.46;101276.69;4620199;31;20077;-59
2023/12/09 05:50:37;;;;;;;3.13;2.70;;;;;;;19.08;43.41;101274.91;4618276;31;20059;-58
2023/12/09 05:53:04;;;;;;;3.50;2.60;;;;;;;19.08;43.32;101263.28;4618520;31;20051;-58
2023/12/09 05:55:32;;;;;;;4.22;3.00;;;;;;;19.07;43.26;101259.75;4618042;31;20056;-55
2023/12/09 05:58:00;;;;;;;3.60;3.00;;;;;;;19.06;43.43;101251.81;4619390;31;20079;-58
2023/12/09 06:00:27;;;;;;;4.40;2.83;;;;;;;19.07;43.45;101261.56;4618590;31;20067;-58
2023/12/09 06:02:55;;;;;;;5.95;4.00;;;;;;;19.06;43.36;101268.78;4618292;31;20059;-58
2023/12/09 06:05:22;;;;;;;3.80;3.13;;;;;;;19.05;43.23;101277.81;4617853;31;20436;-58
2023/12/09 06:07:50;;;;;;;4.30;3.30;;;;;;;19.05;43.25;101283.19;4619826;31;20532;-58
2023/12/09 06:10:17;;;;;;;3.70;3.17;;;;;;;19.06;43.22;101276.81;4618539;31;20516;-58
2023/12/09 06:12:45;;;;;;;3.65;2.92;;;;;;;19.05;43.26;101288.53;4617973;31;20059;-58
2023/12/09 06:15:13;;;;;;;3.72;3.05;;;;;;;19.06;43.14;101286.72;4617832;31;20071;-58
2023/12/09 06:17:40;;;;;;;4.40;3.28;;;;;;;19.05;43.26;101290.38;4619651;31;20063;-56
2023/12/09 06:20:08;;;;;;;3.53;2.78;;;;;;;19.05;43.34;101296.59;4618683;31;20074;-55
2023/12/09 06:22:36;;;;;;;4.15;2.83;;;;;;;19.04;43.10;101286.84;4618086;31;20059;-56
2023/12/09 06:25:04;;;;;;;4.32;3.13;;;;;;;19.05;43.14;101293.06;4618150;31;20055;-56
2023/12/09 06:27:31;;;;;;;4.57;2.85;;;;;;;19.05;43.21;101310.00;4620214;31;20074;-58
2023/12/09 06:29:59;;;;;;;4.38;3.22;;;;;;;19.04;43.23;101311.00;4618322;31;20055;-59
2023/12/09 06:32:26;;;;;;;4.65;3.13;;;;;;;19.04;43.09;101316.34;4617969;31;20074;-59
2023/12/09 06:34:54;;;;;;;3.75;2.58;;;;;;;19.05;43.26;101318.06;4617612;31;20067;-58
2023/12/09 06:37:21;;;;;;;3.97;2.90;;;;;;;19.05;43.15;101317.22;4619941;31;20055;-58
2023/12/09 06:39:49;;;;;;;5.18;3.30;;;;;;;19.05;43.30;101328.78;4630869;30;20091;-58
2023/12/09 06:42:16;;;;;;;3.70;2.95;;;;;;;19.05;43.15;101341.34;4617893;31;20067;-58
2023/12/09 06:44:44;;;;;;;4.28;3.15;;;;;;;19.04;43.03;101343.19;4629950;30;20068;-58
2023/12/09 06:47:11;;;;;;;3.55;2.90;;;;;;;19.03;43.21;101350.34;4619574;31;20059;-55
2023/12/09 06:49:38;;;;;;;4.03;3.15;;;;;;;19.03;43.09;101355.72;4618236;31;20059;-57
2023/12/09 06:52:06;;;;;;;4.45;3.17;;;;;;;19.03;43.00;101363.78;4617783;31;20059;-54
2023/12/09 06:54:36;;;;;;;6.30;4.18;;;;;;;19.03;43.13;101365.59;4617568;31;20059;-55
2023/12/09 06:57:04;;;;;;;3.47;2.90;;;;;;;19.03;43.02;101365.59;4619939;31;20064;-58
2023/12/09 06:59:31;;;;;;;4.20;3.20;;;;;;;19.03;43.18;101366.47;4617983;31;20105;-60
2023/12/09 07:01:59;;;;;;;3.42;2.85;;;;;;;19.02;43.06;101369.28;4618112;31;20070;-58
2023/12/09 07:04:26;;;;;;;3.78;3.03;;;;;;;19.02;43.10;101371.94;4613796;31;20075;-58
2023/12/09 07:06:59;;;;;;;4.05;2.88;;;;;;;19.03;43.16;101381.72;4620071;31;20055;-57
2023/12/09 07:09:28;;;;;;;;;;;;;;;19.01;43.25;101383.66;4612179;31;20392;-55
2023/12/09 07:11:56;;;;;;;3.85;3.00;;;;;;;19.02;43.13;101393.41;4633532;30;19929;-55
2023/12/09 07:14:29;;;;;;;4.00;2.67;;;;;;;19.01;43.16;101389.03;4633394;30;20401;-53
2023/12/09 07:16:56;;;;;;;3.42;2.97;;;;;;;19.02;43.10;101396.09;4623226;31;20055;-53
2023/12/09 07:19:23;;;;;;;4.00;3.08;;;;;;;19.00;43.17;101398.91;4621041;31;20063;-53
2023/12/09 07:21:52;;;;;;;4.28;2.97;;;;;;;19.00;43.17;101393.56;4620727;31;20067;-55
2023/12/09 07:24:20;;;;;;;3.38;2.67;;;;;;;19.00;43.09;101390.00;4621285;31;20064;-54
2023/12/09 07:26:47;;;;;;;4.25;3.38;;;;;;;19.01;43.03;101397.09;4622815;31;20048;-55
2023/12/09 07:29:14;;;;;;;3.92;3.15;;;;;;;19.00;43.17;101390.00;4620534;31;20401;-55
2023/12/09 07:31:42;;;;;;;4.53;3.67;;;;;;;18.99;43.22;101394.50;4620108;31;20059;-55
2023/12/09 07:34:16;;;;;;;3.92;2.78;;;;;;;19.00;43.13;101398.06;4620932;31;20052;-55
2023/12/09 07:36:43;;;;;;;4.20;2.97;;;;;;;18.99;43.27;101386.44;4621568;31;20063;-55
2023/12/09 07:39:11;;;;;;;3.97;3.50;;;;;;;18.99;43.09;101386.44;4620155;31;20162;-55
2023/12/09 07:41:40;;;;;;;4.95;2.90;;;;;;;18.99;43.16;101399.00;4620184;31;20055;-55
2023/12/09 07:44:07;;;;;;;4.30;3.47;;;;;;;18.99;43.25;101410.59;4621645;31;20060;-54
2023/12/09 07:46:35;;;;;;;3.70;3.13;;;;;;;18.99;43.18;101407.06;4621351;31;20059;-55
2023/12/09 07:49:03;;;;;;;4.10;3.55;;;;;;;18.98;43.19;101408.88;4620169;31;20052;-55
2023/12/09 07:51:30;;;;;;;5.15;3.72;;;;;;;18.98;43.21;101400.00;4619786;31;20073;-55
2023/12/09 07:53:57;;;;;;;4.22;3.40;;;;;;;18.99;43.21;101399.00;4621713;31;20060;-55
2023/12/09 07:56:25;;;;;;;4.70;3.65;;;;;;;18.98;43.33;101398.16;4621740;31;20082;-58
2023/12/09 07:58:52;;;;;;;4.43;3.50;;;;;;;18.98;43.39;101400.84;4620317;31;20071;-58
2023/12/09 08:01:20;;;;;;;5.57;3.60;;;;;;;18.98;43.26;101402.69;4621767;31;20408;-58
2023/12/09 08:03:50;;;;;;;4.10;3.55;;;;;;;18.97;43.18;101400.97;4621299;31;20420;-58
2023/12/09 08:06:17;;;;;;;6.78;3.95;;;;;;;18.97;43.17;101403.66;4620856;31;20416;-58
2023/12/09 08:08:45;;;;;;;4.22;3.75;;;;;;;18.99;43.51;101409.75;4620000;31;20068;-58
2023/12/09 08:11:12;;;;;;;4.05;3.50;;;;;;;19.00;43.74;101414.16;4620041;31;20063;-58
2023/12/09 08:13:43;;;;;;;4.65;3.80;;;;;;;19.01;43.72;101415.88;4621599;31;20082;-58
2023/12/09 08:16:10;;;;;;;4.32;3.60;;;;;;;19.02;43.76;101412.19;4620735;31;20056;-57
2023/12/09 08:18:37;;;;;;;4.97;4.18;;;;;;;19.01;43.85;101408.66;4619970;31;20393;-57
2023/12/09 08:21:08;;;;;;;8.05;7.25;;;;;;;18.95;42.36;101410.94;4619271;31;20066;-60
2023/12/09 08:23:36;;;;;;;8.55;7.35;;;;;;;18.93;42.38;101408.38;4621994;31;20063;-61
2023/12/09 08:26:03;;;;;;;5.88;5.03;;;;;;;18.92;42.99;101409.38;4620704;31;20062;-57
2023/12/09 08:28:31;;;;;;;7.07;6.38;;;;;;;18.92;42.41;101412.06;4619846;31;20060;-57
2023/12/09 08:30:58;;;;;;;10.35;8.95;;;;;;;18.90;41.94;101405.06;4619549;31;20056;-57
2023/12/09 08:33:25;;;;;;;13.23;11.02;;;;;;;18.90;40.77;101403.25;4621987;31;20059;-58
2023/12/09 08:35:53;;;;;;;11.25;10.10;;;;;;;18.86;40.33;101399.09;4620089;31;20066;-58
2023/12/09 08:38:21;;;;;;;13.43;12.02;;;;;;;18.84;39.95;101408.19;4619200;31;20052;-54
2023/12/09 08:40:48;;;;;;;11.77;10.43;;;;;;;18.73;40.23;101396.47;4619486;31;20055;-54
2023/12/09 08:43:15;;;;;;;10.60;9.50;;;;;;;18.73;40.77;101403.66;4621525;31;20060;-54
2023/12/09 08:45:43;;;;;;;9.43;8.15;;;;;;;18.77;41.26;101413.19;4619625;31;20055;-57
2023/12/09 08:48:10;;;;;;;8.77;7.78;;;;;;;18.80;41.70;101414.78;4619564;31;20060;-58
2023/12/09 08:50:40;;;;;;;10.52;7.47;;;;;;;18.81;41.77;101409.31;4619271;31;20056;-58
2023/12/09 08:53:08;;;;;;;8.90;7.00;;;;;;;18.85;41.84;101400.06;4633977;30;20063;-49
2023/12/09 08:55:36;;;;;;;8.02;6.70;;;;;;;18.89;41.90;101403.38;4619119;31;20415;-59
2023/12/09 08:58:04;;;;;;;7.28;6.57;;;;;;;18.90;42.00;101402.41;4618921;31;20415;-60
2023/12/09 09:00:31;;;;;;;7.45;6.38;;;;;;;18.95;42.07;101400.22;4619327;31;20523;-59
2023/12/09 09:02:58;;;;;;;7.65;6.80;;;;;;;18.96;41.78;101407.31;4622006;31;20063;-59
2023/12/09 09:05:26;;;;;;;9.55;8.55;;;;;;;18.97;41.25;101407.19;4612550;31;20060;-60
2023/12/09 09:07:53;;;;;;;10.05;7.07;;;;;;;19.00;41.38;101409.66;4618903;31;20051;-60
2023/12/09 09:10:22;;;;;;;6.80;5.68;;;;;;;19.01;41.83;101413.19;4614850;31;20056;-60
2023/12/09 09:12:50;;;;;;;6.93;5.22;;;;;;;19.01;41.86;101411.34;4621415;31;20503;-60
2023/12/09 09:15:19;;;;;;;6.25;5.07;;;;;;;19.05;41.82;101411.13;4612618;31;20052;-60
2023/12/09 09:17:47;;;;;;;6.13;5.53;;;;;;;19.05;41.71;101417.34;4618937;31;20067;-60
2023/12/09 09:20:14;;;;;;;6.45;5.38;;;;;;;19.05;41.73;101421.88;4618504;31;20062;-60
2023/12/09 09:22:42;;;;;;;6.78;5.75;;;;;;;19.05;41.66;101414.66;4621301;31;20130;-60
2023/12/09 09:25:15;;;;;;;7.15;5.70;;;;;;;19.06;41.75;101420.88;4618871;31;20056;-60
2023/12/09 09:27:43;;;;;;;6.53;4.55;;;;;;;19.06;41.74;101424.41;4619062;31;20059;-61
2023/12/09 09:30:11;;;;;;;6.28;4.97;;;;;;;19.07;41.60;101423.44;4619359;31;20051;-61
2023/12/09 09:32:39;;;;;;;7.82;5.35;;;;;;;19.08;41.45;101425.16;4620025;31;20066;-61
2023/12/09 09:35:07;;;;;;;7.28;5.47;;;;;;;19.09;41.49;101416.16;4618976;31;20523;-60
2023/12/09 09:37:35;;;;;;;6.60;5.30;;;;;;;19.09;41.62;101417.97;4618253;31;20055;-60
2023/12/09 09:40:04;;;;;;;5.93;4.53;;;;;;;19.10;41.48;101428.59;4618907;31;20593;-61
2023/12/09 09:42:47;;;;;;;6.22;4.82;;;;;;;19.09;41.49;101428.72;4620168;31;20063;-62
2023/12/09 09:45:22;;;;;;;6.03;5.05;;;;;;;19.09;41.36;101417.97;4618412;31;20067;-61
2023/12/09 09:47:55;;;;;;;5.53;4.50;;;;;;;19.09;41.46;101423.34;4616804;31;20063;-61
2023/12/09 09:50:24;;;;;;;5.65;4.93;;;;;;;19.10;41.41;101419.69;4620281;31;20424;-61
2023/12/09 09:52:53;;;;;;;5.82;4.60;;;;;;;19.08;41.24;101406.38;4618459;31;20063;-62
2023/12/09 09:55:25;;;;;;;7.63;4.97;;;;;;;19.09;41.35;101404.56;4618211;31;20060;-62
2023/12/09 09:57:53;;;;;;;5.22;4.60;;;;;;;19.08;41.30;101401.03;4632563;30;20060;-62
2023/12/09 10:00:21;;;;;;;7.47;5.07;;;;;;;19.09;41.12;101405.41;4619228;31;20103;-62
2023/12/09 10:02:52;;;;;;;5.78;5.00;;;;;;;19.07;41.16;101393.91;4617940;31;20076;-62
2023/12/09 10:05:23;;;;;;;7.47;5.28;;;;;;;19.08;41.06;101394.78;4629644;30;20064;-62
2023/12/09 10:07:51;;;;;;;5.25;4.72;;;;;;;19.08;41.14;101394.78;4620354;31;20082;-62
2023/12/09 10:10:19;;;;;;;5.70;4.95;;;;;;;19.08;41.14;101390.28;4617897;31;20059;-61
2023/12/09 10:12:46;;;;;;;5.78;5.15;;;;;;;19.07;41.07;101393.91;4617831;31;20059;-60
2023/12/09 10:15:14;;;;;;;7.28;4.65;;;;;;;19.08;41.15;101392.97;4613892;31;20055;-61
2023/12/09 10:17:41;;;;;;;5.93;4.82;;;;;;;19.06;41.29;101386.00;4620625;31;20055;-60
2023/12/09 10:20:10;;;;;;;5.97;5.20;;;;;;;19.07;41.08;101387.69;4618298;31;20415;-60
2023/12/09 10:22:38;;;;;;;5.20;4.70;;;;;;;19.07;41.10;101390.38;4618045;31;20432;-60
2023/12/09 10:25:07;;;;;;;5.55;5.05;;;;;;;19.07;41.09;101396.59;4614269;31;20071;-60
2023/12/09 10:27:35;;;;;;;6.25;4.70;;;;;;;19.08;41.38;101400.13;4620902;31;20056;-60
2023/12/09 10:30:03;;;;;;;5.30;4.57;;;;;;;19.07;41.17;101393.06;4611981;31;20063;-61
2023/12/09 10:32:33;;;;;;;5.45;4.60;;;;;;;19.07;41.13;101391.25;4617874;31;20055;-61
2023/12/09 10:35:01;;;;;;;6.13;4.03;;;;;;;19.08;41.32;101394.78;4618107;31;20419;-61
2023/12/09 10:37:31;;;;;;;5.05;4.07;;;;;;;19.08;41.13;101395.66;4622065;31;20059;-60
2023/12/09 10:40:06;;;;;;;5.13;3.90;;;;;;;19.08;41.24;101400.13;4617660;31;20062;-60
2023/12/09 10:42:37;;;;;;;5.15;4.38;;;;;;;19.07;41.23;101383.19;4618139;31;20064;-61
2023/12/09 10:45:05;;;;;;;5.40;4.15;;;;;;;19.07;41.28;101364.41;4621528;31;20056;-60
2023/12/09 10:47:33;;;;;;;4.93;3.95;;;;;;;19.07;41.16;101356.34;4622226;31;20062;-60
2023/12/09 10:50:03;;;;;;;4.43;3.97;;;;;;;19.08;41.31;101367.94;4621076;31;20055;-60
2023/12/09 10:52:30;;;;;;;4.00;3.58;;;;;;;19.06;41.21;101370.75;4620954;31;20082;-60
2023/12/09 10:54:58;;;;;;;4.63;3.72;;;;;;;19.07;41.46;101364.41;4622671;31;20052;-60
2023/12/09 10:57:26;;;;;;;5.22;4.10;;;;;;;19.08;41.38;101370.63;4622218;31;20063;-61
2023/12/09 10:59:53;;;;;;;4.20;3.58;;;;;;;19.07;41.33;101372.44;4621196;31;20441;-61
2023/12/09 11:02:21;;;;;;;4.53;3.85;;;;;;;19.08;41.53;101366.13;4620907;31;20420;-61
2023/12/09 11:04:50;;;;;;;4.65;4.03;;;;;;;19.07;41.30;101368.91;4622803;31;20070;-61
2023/12/09 11:07:18;;;;;;;6.22;4.28;;;;;;;19.07;41.33;101369.75;4621322;31;20420;-61
2023/12/09 11:09:46;;;;;;;4.78;3.60;;;;;;;19.07;41.31;101368.91;4620648;31;20412;-61
2023/12/09 11:12:26;;;;;;;5.32;3.95;;;;;;;19.07;41.20;101368.91;4620625;31;20063;-62
2023/12/09 11:14:55;;;;;;;4.72;3.83;;;;;;;19.06;41.21;101369.91;4624906;31;20059;-63
2023/12/09 11:17:34;;;;;;;4.43;3.47;;;;;;;19.05;41.34;101369.03;4620650;31;20068;-61
2023/12/09 11:20:10;;;;;;;4.43;3.72;;;;;;;19.07;41.42;101360.88;4632739;30;20067;-61
2023/12/09 11:22:40;;;;;;;5.57;4.07;;;;;;;19.07;41.40;101366.22;4623507;31;20055;-62
2023/12/09 11:25:09;;;;;;;4.45;3.45;;;;;;;19.07;41.37;101359.03;4614746;31;20052;-61
2023/12/09 11:27:37;;;;;;;4.82;3.40;;;;;;;19.07;41.20;101356.34;4620785;31;20077;-62
2023/12/09 11:30:05;;;;;;;3.92;3.42;;;;;;;19.06;41.22;101349.28;4620442;31;20062;-60